Time;durP1;ratioP1;P1;durP2;ratioP2;P2;SDS_P1;SDS_P2;PMS_P1;PMS_P2;Temp;Humidity;BMP_temperature;BMP_pressure;BME280_temperature;BME280_humidity;BME280_pressure;Samples;Min_cycle;Max_cycle;Signal;HPM_P1;HPM_P2
2022/06/29 11:57:21;;;;;;;3.63;1.55;;;28.30;44.70;;;;;;4732726;27;10001742;-46
2022/06/29 11:59:47;;;;;;;2.97;2.13;;;24.60;54.60;;;;;;5084683;28;20023;-43
2022/06/29 12:02:14;;;;;;;1.88;1.65;;;24.20;55.70;;;;;;5063470;28;20407;-45
2022/06/29 12:04:41;;;;;;;1.35;1.10;;;24.20;56.00;;;;;;5065659;28;20032;-46
2022/06/29 12:07:09;;;;;;;2.80;2.00;;;24.20;55.50;;;;;;5078936;28;20097;-43
2022/06/29 12:11:31;;;;;;;4.88;1.70;;;24.00;55.10;;;;;;5104785;27;20117;-40
2022/06/29 12:13:56;;;;;;;2.38;1.85;;;23.30;58.00;;;;;;5100835;28;20038;-40
2022/06/29 12:16:22;;;;;;;2.40;1.50;;;22.90;58.90;;;;;;5099378;28;20110;-40
2022/06/29 12:18:47;;;;;;;2.75;1.85;;;22.70;59.80;;;;;;5087809;27;20135;-38
2022/06/29 12:21:13;;;;;;;2.63;1.45;;;22.70;60.30;;;;;;5062510;28;20136;-39
2022/06/29 12:23:39;;;;;;;2.95;1.48;;;22.60;60.20;;;;;;5056093;28;20531;-39
2022/06/29 12:26:04;;;;;;;2.78;1.85;;;22.60;60.30;;;;;;5054948;28;20505;-40
2022/06/29 12:28:30;;;;;;;1.83;1.65;;;22.60;60.20;;;;;;5054076;28;20047;-41
2022/06/29 12:30:55;;;;;;;3.78;1.83;;;22.60;60.10;;;;;;5052602;28;20053;-40
2022/06/29 12:33:21;;;;;;;2.67;1.95;;;22.60;60.60;;;;;;5067985;28;20045;-39
2022/06/29 12:35:47;;;;;;;1.67;1.55;;;22.60;60.30;;;;;;5078415;28;20055;-40
2022/06/29 12:38:12;;;;;;;2.22;1.65;;;22.60;60.60;;;;;;5079538;28;20059;-40
2022/06/29 12:40:38;;;;;;;3.15;1.70;;;22.60;60.20;;;;;;5078663;28;20047;-40
2022/06/29 12:43:04;;;;;;;3.60;2.10;;;22.60;60.10;;;;;;5082175;28;20422;-37
2022/06/29 12:45:31;;;;;;;2.17;1.30;;;22.60;60.30;;;;;;5077920;28;20548;-39
2022/06/29 12:47:56;;;;;;;3.10;1.55;;;22.60;60.00;;;;;;5068966;28;20052;-40
2022/06/29 12:50:22;;;;;;;2.35;1.45;;;22.60;60.20;;;;;;5072073;28;20057;-40
2022/06/29 12:52:47;;;;;;;4.00;1.60;;;22.60;60.50;;;;;;5067396;28;20047;-40
2022/06/29 12:55:13;;;;;;;2.15;1.55;;;22.60;60.70;;;;;;5051981;28;20073;-40
2022/06/29 12:57:42;;;;;;;3.45;1.40;;;22.60;60.10;;;;;;5052090;28;20126;-36
2022/06/29 13:00:08;;;;;;;2.40;1.00;;;22.70;60.20;;;;;;5049212;28;20075;-40
2022/06/29 13:02:34;;;;;;;2.58;1.35;;;22.70;60.20;;;;;;5056179;28;20131;-40
2022/06/29 13:05:00;;;;;;;2.17;1.23;;;22.70;60.50;;;;;;5051743;28;20896;-40
2022/06/29 13:07:26;;;;;;;2.70;1.60;;;22.70;60.00;;;;;;5047254;28;20049;-36
2022/06/29 13:09:56;;;;;;;1.05;0.95;;;22.70;60.20;;;;;;5047718;28;20405;-37
2022/06/29 13:12:22;;;;;;;2.95;1.75;;;22.70;60.30;;;;;;5064770;28;20052;-36
2022/06/29 13:14:50;;;;;;;1.13;1.00;;;22.70;60.20;;;;;;5065199;28;20609;-39
2022/06/29 13:17:16;;;;;;;2.05;1.15;;;22.70;60.00;;;;;;5065018;28;20075;-37
2022/06/29 13:19:42;;;;;;;1.33;1.15;;;22.70;60.10;;;;;;5076877;28;20406;-36
2022/06/29 13:22:12;;;;;;;2.17;1.25;;;22.70;59.60;;;;;;5068656;28;20144;-36
2022/06/29 13:24:38;;;;;;;2.20;1.23;;;22.80;59.80;;;;;;5065286;28;20050;-34
2022/06/29 13:27:03;;;;;;;1.38;1.10;;;22.80;60.20;;;;;;5052366;28;20032;-35
2022/06/29 13:29:29;;;;;;;2.42;1.00;;;22.80;59.90;;;;;;5054275;28;20505;-38
2022/06/29 13:31:55;;;;;;;1.25;1.00;;;22.80;60.20;;;;;;5047160;28;20045;-36
2022/06/29 13:34:20;;;;;;;1.70;0.93;;;22.80;59.50;;;;;;5052667;28;20056;-33
2022/06/29 13:36:47;;;;;;;2.22;0.90;;;22.80;59.70;;;;;;5058336;28;20801;-36
2022/06/29 13:39:13;;;;;;;1.92;1.02;;;22.80;59.80;;;;;;5065201;28;20049;-37
2022/06/29 13:41:39;;;;;;;1.20;0.80;;;22.90;59.50;;;;;;5066137;28;20103;-39
2022/06/29 13:44:04;;;;;;;1.23;0.93;;;22.90;59.10;;;;;;5064485;28;20170;-36
2022/06/29 13:46:30;;;;;;;1.05;0.73;;;22.90;58.60;;;;;;5065310;28;20064;-39
2022/06/29 13:48:55;;;;;;;2.63;0.90;;;22.90;58.50;;;;;;5062144;28;20117;-37
2022/06/29 13:51:21;;;;;;;1.65;1.13;;;22.90;58.80;;;;;;5065221;28;20064;-36
2022/06/29 13:53:46;;;;;;;1.58;0.85;;;22.90;58.80;;;;;;5063045;28;20463;-36
2022/06/29 13:56:12;;;;;;;1.25;0.98;;;22.90;58.70;;;;;;5064580;28;20052;-33
2022/06/29 13:58:38;;;;;;;1.23;0.80;;;22.90;58.80;;;;;;5063426;28;20136;-38
2022/06/29 14:01:03;;;;;;;1.45;0.80;;;22.80;58.70;;;;;;5060266;28;20440;-39
2022/06/29 14:03:29;;;;;;;1.42;0.70;;;22.80;58.20;;;;;;5058610;28;20048;-36
2022/06/29 14:05:55;;;;;;;2.25;0.80;;;22.80;58.50;;;;;;5055451;28;20073;-34
2022/06/29 14:08:20;;;;;;;0.93;0.63;;;22.90;58.90;;;;;;5044837;28;20041;-36
2022/06/29 14:10:46;;;;;;;1.27;0.90;;;22.90;58.90;;;;;;5038991;28;20090;-38
2022/06/29 14:13:12;;;;;;;1.17;0.70;;;22.90;58.80;;;;;;5034154;28;20033;-37
2022/06/29 14:15:38;;;;;;;1.30;0.60;;;22.90;58.80;;;;;;5039183;28;20048;-33
2022/06/29 14:18:03;;;;;;;2.33;0.90;;;22.90;58.20;;;;;;5054364;28;20032;-34
2022/06/29 14:20:29;;;;;;;1.10;0.80;;;22.90;58.80;;;;;;5058026;28;20406;-34
2022/06/29 14:22:54;;;;;;;1.13;0.60;;;22.90;58.80;;;;;;5053392;28;20048;-38
2022/06/29 14:25:21;;;;;;;1.25;0.85;;;23.00;59.20;;;;;;5049176;28;20394;-36
2022/06/29 14:27:47;;;;;;;1.10;0.80;;;23.00;59.10;;;;;;5049003;28;20047;-36
2022/06/29 14:30:13;;;;;;;1.48;0.80;;;23.00;59.10;;;;;;5062644;28;20052;-37
2022/06/29 14:32:41;;;;;;;1.05;0.80;;;23.00;58.60;;;;;;5049939;28;20140;-36
2022/06/29 14:35:10;;;;;;;1.10;0.82;;;23.00;58.70;;;;;;5047625;28;20101;-36
2022/06/29 14:37:35;;;;;;;0.80;0.50;;;23.00;58.30;;;;;;5060784;28;20091;-36
2022/06/29 14:40:01;;;;;;;1.48;0.90;;;23.00;58.30;;;;;;5063213;28;20445;-36
2022/06/29 14:42:27;;;;;;;0.90;0.70;;;23.00;58.20;;;;;;5063155;28;20044;-35
2022/06/29 14:44:52;;;;;;;0.57;0.43;;;23.00;58.80;;;;;;5062590;28;20444;-35
2022/06/29 14:47:18;;;;;;;1.55;1.02;;;23.00;58.30;;;;;;5061875;28;20128;-30
2022/06/29 14:49:44;;;;;;;1.38;0.80;;;23.00;58.70;;;;;;5063281;28;20052;-33
2022/06/29 14:52:09;;;;;;;3.97;0.93;;;23.00;58.80;;;;;;5065125;28;20421;-35
2022/06/29 14:54:35;;;;;;;0.85;0.70;;;23.00;59.10;;;;;;5063026;28;20193;-35
2022/06/29 14:57:00;;;;;;;1.40;0.82;;;23.10;58.00;;;;;;5056646;28;20045;-33
2022/06/29 14:59:26;;;;;;;0.95;0.68;;;23.00;58.50;;;;;;5056358;28;20072;-34
2022/06/29 15:01:51;;;;;;;2.35;0.88;;;23.00;58.60;;;;;;5052097;28;20143;-34
2022/06/29 15:04:17;;;;;;;0.80;0.65;;;23.00;59.40;;;;;;5055814;28;20080;-33
2022/06/29 15:06:43;;;;;;;2.92;0.77;;;23.00;59.20;;;;;;4684484;28;10000509;-36
2022/06/29 15:09:09;;;;;;;1.02;0.63;;;23.00;58.00;;;;;;5038013;28;20123;-32
2022/06/29 15:11:35;;;;;;;1.10;0.77;;;23.00;59.30;;;;;;5037412;28;20110;-38
2022/06/29 15:14:00;;;;;;;0.73;0.70;;;23.00;59.20;;;;;;5037160;28;20081;-36
2022/06/29 15:16:26;;;;;;;3.00;0.60;;;23.00;58.50;;;;;;5037614;28;20069;-36
2022/06/29 15:18:52;;;;;;;1.13;0.70;;;23.00;59.00;;;;;;5058348;28;20049;-37
2022/06/29 15:21:18;;;;;;;1.23;0.50;;;23.00;58.60;;;;;;5051269;28;20076;-36
2022/06/29 15:23:44;;;;;;;0.90;0.70;;;23.00;58.60;;;;;;5048285;28;20505;-34
2022/06/29 15:26:09;;;;;;;1.13;0.60;;;23.00;57.70;;;;;;5052183;28;20055;-37
2022/06/29 15:28:35;;;;;;;1.20;0.50;;;23.00;57.30;;;;;;5058909;28;20044;-38
2022/06/29 15:31:01;;;;;;;1.67;0.63;;;23.00;58.30;;;;;;5062280;28;20049;-36
2022/06/29 15:38:54;;;;;;;;;;;23.00;58.80;;;;;;5052675;28;20110;-36
2022/06/29 15:41:20;;;;;;;0.90;0.50;;;23.00;58.50;;;;;;5056264;28;19928;-32
2022/06/29 15:43:46;;;;;;;0.90;0.70;;;23.00;58.80;;;;;;5052962;28;20512;-35
2022/06/29 15:46:13;;;;;;;1.40;0.75;;;23.00;59.10;;;;;;5033816;28;20377;-35
2022/06/29 15:48:38;;;;;;;0.63;0.50;;;23.00;57.30;;;;;;5033330;28;20080;-39
2022/06/29 15:51:04;;;;;;;1.40;0.68;;;23.00;56.30;;;;;;5032926;28;20076;-36
2022/06/29 15:56:14;;;;;;;1.42;0.40;;;23.00;55.30;;;;;;5047295;28;20051;-35
2022/06/29 15:58:40;;;;;;;1.23;0.50;;;22.90;56.80;;;;;;5059883;28;20045;-37
2022/06/29 16:01:05;;;;;;;1.15;0.50;;;22.90;56.70;;;;;;5063095;28;20504;-36
2022/06/29 16:03:31;;;;;;;1.55;0.50;;;22.90;56.50;;;;;;5062394;28;20044;-39
2022/06/29 16:05:56;;;;;;;3.25;0.60;;;22.90;56.20;;;;;;5061081;28;20056;-32
2022/06/29 16:08:22;;;;;;;2.65;0.50;;;22.90;56.90;;;;;;5061595;28;20508;-37
2022/06/29 16:10:47;;;;;;;1.08;0.43;;;22.90;57.10;;;;;;5061317;28;20045;-39
2022/06/29 16:13:13;;;;;;;1.02;0.47;;;22.90;57.30;;;;;;5062780;28;20059;-33
2022/06/29 16:15:39;;;;;;;1.08;0.65;;;22.90;57.00;;;;;;5062619;28;20199;-39
2022/06/29 16:18:04;;;;;;;0.80;0.40;;;22.90;57.00;;;;;;5058979;28;20538;-36
2022/06/29 16:20:30;;;;;;;0.90;0.52;;;22.80;55.90;;;;;;5054648;28;20827;-38
2022/06/29 16:22:56;;;;;;;0.88;0.40;;;22.90;56.70;;;;;;5044041;28;20041;-37
2022/06/29 16:25:22;;;;;;;1.25;0.57;;;22.80;55.70;;;;;;5053278;28;20059;-35
2022/06/29 16:27:47;;;;;;;0.93;0.30;;;22.80;56.80;;;;;;5049027;28;20433;-37
2022/06/29 16:30:14;;;;;;;0.30;0.30;;;22.80;56.30;;;;;;5057604;28;20133;-35
2022/06/29 16:32:40;;;;;;;1.00;0.40;;;22.80;56.40;;;;;;5045147;28;20049;-36
2022/06/29 16:35:06;;;;;;;0.68;0.32;;;22.80;56.60;;;;;;5060542;28;20037;-35
2022/06/29 16:37:31;;;;;;;1.08;0.50;;;22.80;57.00;;;;;;5050163;28;20465;-39
2022/06/29 16:39:57;;;;;;;1.35;0.50;;;22.80;56.70;;;;;;5046896;28;22018;-34
2022/06/29 16:42:22;;;;;;;1.73;0.38;;;22.80;56.10;;;;;;5056696;28;20087;-37
2022/06/29 16:44:48;;;;;;;0.63;0.38;;;22.70;56.20;;;;;;5047902;28;20131;-32
2022/06/29 16:47:14;;;;;;;0.85;0.40;;;22.70;56.20;;;;;;5062921;28;20052;-36
2022/06/29 16:49:39;;;;;;;0.65;0.50;;;22.80;56.40;;;;;;5056245;28;20052;-32
2022/06/29 16:52:05;;;;;;;0.70;0.30;;;22.70;56.60;;;;;;5052056;28;20577;-38
2022/06/29 16:54:31;;;;;;;1.60;0.55;;;22.80;56.20;;;;;;5058806;28;20128;-30
2022/06/29 16:56:56;;;;;;;1.08;0.50;;;22.80;56.50;;;;;;5060979;28;20436;-36
2022/06/29 16:59:22;;;;;;;0.70;0.50;;;22.70;56.60;;;;;;5064180;28;20048;-39
2022/06/29 17:01:49;;;;;;;0.63;0.43;;;22.70;56.20;;;;;;5064880;28;20057;-36
2022/06/29 17:04:15;;;;;;;1.83;0.60;;;22.70;56.70;;;;;;5063000;28;20040;-35
2022/06/29 17:06:41;;;;;;;0.85;0.68;;;22.70;57.00;;;;;;5055541;28;20454;-37
2022/06/29 17:09:06;;;;;;;1.63;0.30;;;22.70;57.30;;;;;;5062603;28;20044;-37
2022/06/29 17:11:32;;;;;;;0.60;0.32;;;22.70;56.60;;;;;;5047217;28;20180;-37
2022/06/29 17:13:58;;;;;;;0.40;0.28;;;22.70;56.60;;;;;;5040073;28;20529;-39
2022/06/29 17:16:24;;;;;;;0.43;0.30;;;22.70;56.80;;;;;;5052852;28;20045;-34
2022/06/29 17:18:51;;;;;;;1.10;0.38;;;22.70;56.80;;;;;;5055818;28;20037;-37
2022/06/29 17:21:16;;;;;;;0.80;0.40;;;22.70;56.70;;;;;;5055385;28;20044;-33
2022/06/29 17:23:44;;;;;;;1.13;0.30;;;22.70;56.80;;;;;;5046731;28;20098;-35
2022/06/29 17:26:09;;;;;;;0.57;0.40;;;22.70;57.00;;;;;;5060675;28;20048;-35
2022/06/29 17:28:35;;;;;;;1.88;0.50;;;22.70;56.90;;;;;;5054097;28;20044;-36
2022/06/29 17:31:01;;;;;;;0.65;0.38;;;22.70;57.00;;;;;;5052868;28;20053;-38
2022/06/29 17:33:27;;;;;;;0.43;0.25;;;22.70;56.70;;;;;;5053040;28;20538;-38
2022/06/29 17:35:52;;;;;;;2.58;0.38;;;22.60;57.90;;;;;;5059649;28;20049;-37
2022/06/29 17:38:18;;;;;;;0.93;0.30;;;22.60;56.80;;;;;;5053779;28;20048;-37
2022/06/29 17:40:43;;;;;;;0.90;0.50;;;22.60;57.10;;;;;;5050685;28;20105;-39
2022/06/29 17:43:09;;;;;;;0.60;0.40;;;22.60;57.00;;;;;;5046723;28;20037;-37
2022/06/29 17:45:34;;;;;;;1.10;0.55;;;22.60;57.60;;;;;;5047274;28;20045;-34
2022/06/29 17:48:00;;;;;;;0.93;0.40;;;22.60;56.70;;;;;;5064135;28;20035;-39
2022/06/29 17:50:25;;;;;;;0.50;0.28;;;22.60;56.90;;;;;;5063358;28;20053;-37
2022/06/29 17:52:51;;;;;;;0.68;0.28;;;22.60;57.00;;;;;;5065258;28;20070;-35
2022/06/29 17:55:17;;;;;;;0.70;0.30;;;22.60;56.90;;;;;;5060620;28;20534;-34
2022/06/29 17:57:42;;;;;;;0.60;0.40;;;22.60;57.40;;;;;;5063513;28;20116;-36
2022/06/29 18:00:09;;;;;;;0.65;0.38;;;22.60;56.80;;;;;;5065157;28;20124;-38
2022/06/29 18:02:35;;;;;;;0.40;0.20;;;22.50;57.10;;;;;;5061923;28;20032;-31
2022/06/29 18:05:01;;;;;;;1.13;0.30;;;22.60;56.90;;;;;;5063029;28;20048;-32
2022/06/29 18:07:26;;;;;;;0.60;0.30;;;22.50;56.90;;;;;;5063377;28;20076;-38
2022/06/29 18:09:53;;;;;;;0.88;0.35;;;22.50;57.20;;;;;;5059468;28;20113;-31
2022/06/29 18:12:19;;;;;;;1.50;0.25;;;22.60;57.20;;;;;;5049649;28;20049;-32
2022/06/29 18:14:44;;;;;;;0.60;0.50;;;22.60;57.40;;;;;;5059371;28;20055;-36
2022/06/29 18:17:10;;;;;;;0.50;0.40;;;22.60;57.60;;;;;;5050539;28;20734;-34
2022/06/29 18:19:36;;;;;;;1.65;0.40;;;22.60;57.70;;;;;;5044897;28;20047;-39
2022/06/29 18:22:02;;;;;;;0.80;0.50;;;22.60;57.70;;;;;;5053717;28;20114;-36
2022/06/29 18:24:27;;;;;;;4.38;2.38;;;22.60;57.90;;;;;;5056174;28;20535;-33
2022/06/29 18:26:53;;;;;;;10.65;6.50;;;22.60;57.60;;;;;;5052525;28;20053;-38
2022/06/29 18:29:18;;;;;;;21.90;10.07;;;22.50;58.00;;;;;;5051617;28;20079;-36
2022/06/29 18:31:44;;;;;;;23.48;12.13;;;22.60;58.10;;;;;;5031516;28;20052;-31
2022/06/29 18:34:10;;;;;;;29.60;13.45;;;22.50;57.60;;;;;;5036579;28;20060;-38
2022/06/29 18:36:35;;;;;;;33.03;15.45;;;22.50;57.60;;;;;;5051547;28;20044;-38
2022/06/29 18:39:02;;;;;;;31.80;16.38;;;22.50;57.80;;;;;;5050737;28;20135;-38
2022/06/29 18:41:27;;;;;;;42.55;18.98;;;22.50;58.00;;;;;;5057621;28;20413;-36
2022/06/29 18:43:53;;;;;;;36.65;18.42;;;22.50;58.00;;;;;;5047470;28;20040;-36
2022/06/29 18:46:18;;;;;;;34.22;16.95;;;22.50;58.20;;;;;;5064224;28;20468;-35
2022/06/29 18:48:44;;;;;;;36.28;18.25;;;22.50;58.40;;;;;;5066828;28;20048;-34
2022/06/29 18:51:10;;;;;;;31.95;16.80;;;22.50;58.40;;;;;;5050741;28;20076;-38
2022/06/29 18:53:35;;;;;;;29.33;15.15;;;22.50;58.10;;;;;;5046522;28;20036;-37
2022/06/29 18:56:01;;;;;;;31.95;16.00;;;22.50;58.00;;;;;;5041583;28;20113;-38
2022/06/29 18:58:26;;;;;;;29.15;15.98;;;22.50;58.40;;;;;;5052376;28;20042;-36
2022/06/29 19:00:52;;;;;;;26.88;14.90;;;22.50;58.40;;;;;;5036325;28;20102;-35
2022/06/29 19:03:17;;;;;;;26.52;13.10;;;22.60;58.20;;;;;;5051363;28;20043;-33
2022/06/29 19:05:43;;;;;;;25.90;13.57;;;22.60;58.30;;;;;;5058955;28;20049;-37
2022/06/29 19:08:09;;;;;;;24.40;14.23;;;22.60;58.30;;;;;;5047396;28;20462;-33
2022/06/29 19:10:35;;;;;;;25.48;13.88;;;22.60;58.50;;;;;;5051209;28;20052;-37
2022/06/29 19:13:01;;;;;;;25.33;13.05;;;22.60;58.40;;;;;;5050766;28;20069;-38
2022/06/29 19:15:27;;;;;;;20.90;12.82;;;22.60;58.50;;;;;;5044941;28;20041;-36
2022/06/29 19:17:52;;;;;;;24.25;13.05;;;22.60;58.20;;;;;;5047160;28;20049;-36
2022/06/29 19:20:18;;;;;;;25.33;12.40;;;22.60;58.50;;;;;;5053869;28;20053;-31
2022/06/29 19:22:44;;;;;;;19.90;11.48;;;22.60;58.50;;;;;;5035494;28;20049;-36
2022/06/29 19:25:11;;;;;;;24.05;11.70;;;22.60;57.90;;;;;;5061615;28;20048;-37
2022/06/29 19:27:37;;;;;;;18.58;10.85;;;22.60;58.30;;;;;;5056106;28;20052;-39
2022/06/29 19:30:03;;;;;;;24.38;12.57;;;22.60;58.30;;;;;;5049805;28;20053;-35
2022/06/29 19:32:29;;;;;;;20.42;11.88;;;22.50;58.60;;;;;;5032360;28;20052;-34
2022/06/29 19:34:54;;;;;;;22.25;11.32;;;22.60;58.70;;;;;;5060436;28;20448;-34
2022/06/29 19:37:20;;;;;;;25.50;12.60;;;22.50;58.80;;;;;;5047793;28;20090;-34
2022/06/29 19:39:45;;;;;;;23.20;12.27;;;22.50;59.10;;;;;;5061845;28;20052;-38
2022/06/29 19:42:11;;;;;;;22.27;11.63;;;22.50;59.00;;;;;;5058673;28;20052;-34
2022/06/29 19:44:37;;;;;;;23.70;11.88;;;22.60;59.10;;;;;;5056912;28;20051;-33
2022/06/29 19:47:02;;;;;;;21.15;11.38;;;22.50;59.20;;;;;;5060098;28;20032;-31
2022/06/29 19:49:28;;;;;;;16.92;10.63;;;22.50;59.30;;;;;;5048394;28;20064;-37
2022/06/29 19:51:53;;;;;;;18.15;10.38;;;22.50;59.50;;;;;;5044951;28;20051;-32
2022/06/29 19:54:19;;;;;;;16.38;10.05;;;22.50;59.30;;;;;;5035226;28;20460;-36
2022/06/29 19:56:45;;;;;;;20.42;10.27;;;22.50;59.50;;;;;;5057802;28;20044;-35
2022/06/29 19:59:10;;;;;;;19.85;10.50;;;22.50;59.50;;;;;;5060038;28;20048;-37
2022/06/29 20:01:36;;;;;;;19.40;11.60;;;22.50;59.60;;;;;;5047712;28;20413;-34
2022/06/29 20:04:02;;;;;;;16.27;9.95;;;22.50;59.80;;;;;;5060039;28;20040;-38
2022/06/29 20:06:28;;;;;;;18.15;10.32;;;22.50;59.70;;;;;;5044647;28;20120;-38
2022/06/29 20:08:53;;;;;;;17.70;10.40;;;22.50;59.80;;;;;;5039002;28;20048;-36
2022/06/29 20:11:19;;;;;;;14.32;9.63;;;22.50;59.70;;;;;;5050919;28;20082;-35
2022/06/29 20:13:46;;;;;;;17.23;9.98;;;22.50;59.90;;;;;;5057208;28;20138;-34
2022/06/29 20:16:12;;;;;;;16.58;9.55;;;22.50;60.00;;;;;;5062553;28;20539;-37
2022/06/29 20:18:38;;;;;;;14.85;9.13;;;22.50;60.10;;;;;;5063447;28;20040;-38
2022/06/29 20:21:04;;;;;;;17.08;10.18;;;22.50;60.10;;;;;;5060880;28;20045;-31
2022/06/29 20:23:29;;;;;;;18.00;9.52;;;22.40;60.30;;;;;;5045352;28;20080;-37
2022/06/29 20:25:55;;;;;;;16.38;10.13;;;22.40;60.30;;;;;;5034122;28;20037;-34
2022/06/29 20:28:21;;;;;;;15.02;9.35;;;22.40;60.30;;;;;;5038594;28;20136;-34
2022/06/29 20:30:46;;;;;;;15.10;8.93;;;22.40;61.40;;;;;;5037357;28;20045;-35
2022/06/29 20:33:12;;;;;;;14.25;8.38;;;22.40;60.30;;;;;;5057392;28;20041;-35
2022/06/29 20:35:37;;;;;;;12.10;7.88;;;22.40;60.60;;;;;;5060568;28;20048;-33
2022/06/29 20:38:03;;;;;;;13.85;8.82;;;22.40;60.50;;;;;;5054412;28;20048;-35
2022/06/29 20:40:29;;;;;;;15.85;9.32;;;22.40;60.80;;;;;;5052303;28;20037;-36
2022/06/29 20:42:54;;;;;;;13.55;8.18;;;22.40;60.80;;;;;;5041701;28;20041;-35
2022/06/29 20:45:20;;;;;;;12.65;8.48;;;22.40;61.10;;;;;;5040062;28;20053;-36
2022/06/29 20:47:53;;;;;;;12.63;8.07;;;22.40;61.20;;;;;;5041047;28;20041;-35
2022/06/29 20:50:19;;;;;;;12.25;8.18;;;22.40;61.00;;;;;;5054820;28;20079;-38
2022/06/29 20:52:45;;;;;;;14.02;7.82;;;22.40;61.20;;;;;;5061936;28;20501;-34
2022/06/29 20:55:11;;;;;;;10.82;7.85;;;22.40;60.90;;;;;;5057029;28;20047;-34
2022/06/29 20:57:40;;;;;;;11.43;7.45;;;22.40;61.10;;;;;;5055413;28;20639;-37
2022/06/29 21:00:07;;;;;;;11.45;7.20;;;22.40;61.20;;;;;;5056746;28;20064;-35
2022/06/29 21:02:33;;;;;;;12.35;7.60;;;22.40;61.10;;;;;;5049875;28;20060;-36
2022/06/29 21:04:59;;;;;;;10.40;7.13;;;22.40;62.00;;;;;;5057724;28;20087;-35
2022/06/29 21:07:24;;;;;;;11.68;7.43;;;22.40;61.20;;;;;;5054311;28;20053;-37
2022/06/29 21:09:50;;;;;;;9.90;7.13;;;22.40;61.30;;;;;;5058579;28;20573;-38
2022/06/29 21:12:16;;;;;;;11.07;7.00;;;22.40;61.30;;;;;;5049557;28;20055;-33
2022/06/29 21:14:42;;;;;;;10.48;6.85;;;22.40;61.30;;;;;;5066628;28;20051;-38
2022/06/29 21:17:08;;;;;;;11.68;7.00;;;22.30;61.30;;;;;;5053870;28;20036;-35
2022/06/29 21:19:33;;;;;;;12.40;7.22;;;22.40;61.30;;;;;;5054534;28;20042;-37
2022/06/29 21:21:59;;;;;;;10.90;7.10;;;22.30;61.20;;;;;;5039631;28;20119;-36
2022/06/29 21:24:24;;;;;;;11.63;6.78;;;22.30;61.30;;;;;;5036729;28;20052;-35
2022/06/29 21:26:50;;;;;;;11.75;7.10;;;22.40;61.40;;;;;;5037818;28;20124;-36
2022/06/29 21:29:16;;;;;;;8.50;6.35;;;22.40;61.70;;;;;;5065839;28;20060;-35
2022/06/29 21:31:41;;;;;;;11.05;7.00;;;22.40;61.50;;;;;;5053548;28;20036;-38
2022/06/29 21:34:07;;;;;;;10.77;6.95;;;22.50;61.30;;;;;;5042015;28;20042;-38
2022/06/29 21:36:32;;;;;;;9.35;6.20;;;22.50;61.40;;;;;;5053365;28;20072;-34
2022/06/29 21:38:58;;;;;;;7.88;5.70;;;22.40;61.20;;;;;;5062927;28;20044;-37
2022/06/29 21:41:23;;;;;;;9.10;6.57;;;22.40;61.30;;;;;;5068607;28;20457;-38
2022/06/29 21:43:49;;;;;;;6.43;5.20;;;22.40;61.20;;;;;;5066755;28;20040;-36
2022/06/29 21:46:15;;;;;;;9.50;5.40;;;22.40;61.10;;;;;;5066158;28;20052;-38
2022/06/29 21:51:24;;;;;;;;;;;22.40;61.90;;;;;;5059503;28;20409;-35
2022/06/29 21:53:50;;;;;;;9.18;5.50;;;22.40;61.30;;;;;;5066541;28;19916;-37
2022/06/29 21:56:16;;;;;;;9.38;5.82;;;22.40;62.00;;;;;;5065003;28;22139;-36
2022/06/29 21:58:41;;;;;;;8.68;6.15;;;22.40;61.30;;;;;;5066752;28;20040;-35
2022/06/29 22:01:07;;;;;;;6.32;5.10;;;22.40;61.30;;;;;;5067181;28;20052;-38
2022/06/29 22:03:33;;;;;;;7.38;5.55;;;22.40;61.30;;;;;;5063803;28;22311;-38
2022/06/29 22:06:01;;;;;;;10.35;6.07;;;22.30;61.40;;;;;;5049769;28;20508;-36
2022/06/29 22:08:27;;;;;;;7.93;5.63;;;22.30;61.50;;;;;;5068546;28;20039;-37
2022/06/29 22:10:53;;;;;;;7.18;5.20;;;22.30;61.50;;;;;;5066460;28;20459;-39
2022/06/29 22:13:18;;;;;;;8.43;6.00;;;22.30;61.50;;;;;;5068331;28;20094;-38
2022/06/29 22:15:44;;;;;;;6.78;5.18;;;22.40;61.60;;;;;;5063866;28;20094;-38
2022/06/29 22:18:10;;;;;;;7.07;5.30;;;22.20;61.50;;;;;;5065729;28;20047;-38
2022/06/29 22:20:35;;;;;;;7.47;5.40;;;22.20;61.70;;;;;;5063751;28;20041;-37
2022/06/29 22:23:01;;;;;;;6.35;5.07;;;22.20;62.60;;;;;;5056509;28;20091;-39
2022/06/29 22:25:26;;;;;;;7.85;5.82;;;22.30;61.70;;;;;;5040792;28;20041;-38
2022/06/29 22:27:54;;;;;;;6.10;5.03;;;22.20;61.60;;;;;;5034721;28;20037;-38
2022/06/29 22:30:21;;;;;;;6.10;5.07;;;22.30;61.60;;;;;;5060842;28;20061;-39
2022/06/29 22:32:46;;;;;;;5.25;4.70;;;22.30;61.50;;;;;;5053314;28;20043;-36
2022/06/29 22:35:12;;;;;;;5.43;4.90;;;22.20;61.60;;;;;;5067646;28;20044;-37
2022/06/29 22:37:38;;;;;;;4.95;4.30;;;22.30;61.50;;;;;;5067743;28;20462;-37
2022/06/29 22:40:04;;;;;;;4.68;4.18;;;22.30;61.50;;;;;;5065979;28;20040;-37
2022/06/29 22:42:29;;;;;;;5.80;4.72;;;22.30;61.50;;;;;;5064650;28;20044;-37
2022/06/29 22:44:55;;;;;;;6.15;5.05;;;22.20;61.60;;;;;;5066893;28;20139;-37
2022/06/29 22:47:21;;;;;;;5.10;4.38;;;22.20;62.40;;;;;;5067142;28;20509;-36
2022/06/29 22:49:46;;;;;;;6.07;4.63;;;22.20;61.70;;;;;;5065093;28;20504;-38
2022/06/29 22:52:13;;;;;;;5.68;4.38;;;22.20;62.50;;;;;;5066530;28;20051;-36
2022/06/29 22:54:38;;;;;;;5.45;4.60;;;22.20;61.50;;;;;;5066509;28;20832;-37
2022/06/29 22:57:04;;;;;;;4.55;4.15;;;22.20;61.60;;;;;;5061108;28;20044;-33
2022/06/29 22:59:30;;;;;;;5.45;4.13;;;22.20;61.60;;;;;;5067678;28;20173;-39
2022/06/29 23:01:56;;;;;;;4.72;4.22;;;22.20;62.30;;;;;;5068620;28;20435;-39
2022/06/29 23:04:21;;;;;;;5.05;4.30;;;22.20;61.50;;;;;;5063452;28;20556;-37
2022/06/29 23:06:47;;;;;;;6.32;4.50;;;22.20;61.70;;;;;;5069054;28;20043;-34
2022/06/29 23:09:12;;;;;;;5.22;4.43;;;22.20;61.50;;;;;;5066732;28;20086;-38
2022/06/29 23:14:22;;;;;;;4.63;3.75;;;22.20;61.50;;;;;;5052912;28;20081;-36
2022/06/29 23:16:47;;;;;;;4.03;3.63;;;22.20;62.50;;;;;;5051761;28;20029;-37
2022/06/29 23:19:13;;;;;;;4.40;3.95;;;22.10;61.80;;;;;;5062944;28;20044;-36
2022/06/29 23:21:38;;;;;;;5.30;3.42;;;22.10;61.80;;;;;;5050086;28;20132;-38
2022/06/29 23:24:05;;;;;;;5.10;3.55;;;22.10;61.90;;;;;;5052485;28;20044;-37
2022/06/29 23:26:30;;;;;;;5.15;3.90;;;22.10;61.70;;;;;;5053355;28;20220;-35
2022/06/29 23:28:56;;;;;;;3.63;3.30;;;22.10;61.80;;;;;;5052314;28;20131;-38
2022/06/29 23:31:26;;;;;;;3.50;3.20;;;22.10;62.00;;;;;;5049435;28;20050;-37
2022/06/29 23:33:52;;;;;;;5.20;3.53;;;22.10;62.10;;;;;;5049662;28;20056;-37
2022/06/29 23:36:18;;;;;;;4.03;3.63;;;22.00;62.10;;;;;;5034528;28;20045;-37
2022/06/29 23:38:44;;;;;;;7.40;3.78;;;22.00;62.10;;;;;;5040817;28;20053;-38
2022/06/29 23:41:10;;;;;;;3.38;3.08;;;22.00;62.10;;;;;;5052434;28;20394;-34
2022/06/29 23:43:35;;;;;;;5.38;3.55;;;22.10;62.10;;;;;;5043391;28;20041;-37
2022/06/29 23:46:01;;;;;;;3.83;3.30;;;22.00;62.10;;;;;;5050928;28;20577;-33
2022/06/29 23:48:27;;;;;;;3.38;3.08;;;22.00;62.20;;;;;;5066654;28;20488;-38
2022/06/29 23:50:52;;;;;;;4.07;3.67;;;22.00;62.10;;;;;;5066722;28;20111;-37
2022/06/29 23:53:18;;;;;;;3.90;3.38;;;22.00;62.10;;;;;;5048414;28;20128;-38
2022/06/29 23:55:44;;;;;;;3.83;3.42;;;22.00;62.20;;;;;;5066716;28;20047;-37
2022/06/29 23:58:10;;;;;;;4.30;3.70;;;22.00;62.20;;;;;;5048130;28;20033;-35
